createdAt,value
2018-12-18T00:00:21.226Z,99232.39
2018-12-18T00:02:51.490Z,99232.03
2018-12-18T00:05:26.117Z,99237.44
2018-12-18T00:07:54.748Z,99232.69
2018-12-18T00:10:25.379Z,99228.55
2018-12-18T00:12:53.895Z,99229.16
2018-12-18T00:15:22.382Z,99227.74
2018-12-18T00:17:50.835Z,99227.27
2018-12-18T00:20:19.990Z,99228.53
2018-12-18T00:22:48.442Z,99224.59
2018-12-18T00:25:17.078Z,99221.35
2018-12-18T00:27:45.637Z,99218.20
2018-12-18T00:30:14.168Z,99221.06
2018-12-18T00:32:42.754Z,99219.34
2018-12-18T00:35:11.423Z,99220.73
2018-12-18T00:37:39.891Z,99227.28
2018-12-18T00:40:08.608Z,99223.77
2018-12-18T00:42:37.100Z,99228.11
2018-12-18T00:45:06.203Z,99229.73
2018-12-18T00:47:34.675Z,99231.34
2018-12-18T00:50:03.233Z,99231.14
2018-12-18T00:52:31.886Z,99229.74
2018-12-18T00:55:00.461Z,99227.84
2018-12-18T00:57:29.018Z,99229.47
2018-12-18T00:59:57.521Z,99240.59
2018-12-18T01:02:26.213Z,99235.12
2018-12-18T01:04:54.694Z,99234.05
2018-12-18T01:07:23.176Z,99227.58
2018-12-18T01:09:51.777Z,99230.54
2018-12-18T01:12:20.330Z,99239.98
2018-12-18T01:14:48.873Z,99228.91
2018-12-18T01:17:17.426Z,99230.27
2018-12-18T01:19:45.922Z,99241.06
2018-12-18T01:22:14.502Z,99233.25
2018-12-18T01:24:43.012Z,99233.25
2018-12-18T01:27:11.582Z,99234.11
2018-12-18T01:29:40.070Z,99240.36
2018-12-18T01:32:08.561Z,99249.78
2018-12-18T01:34:37.106Z,99249.00
2018-12-18T01:37:05.605Z,99249.26
2018-12-18T01:39:34.119Z,99247.37
2018-12-18T01:42:02.712Z,99243.83
2018-12-18T01:44:31.199Z,99239.19
2018-12-18T01:46:59.766Z,99249.73
2018-12-18T01:49:28.250Z,99254.87
2018-12-18T01:51:56.849Z,99247.57
2018-12-18T01:54:25.314Z,99245.67
2018-12-18T01:56:53.834Z,99252.98
2018-12-18T01:59:22.397Z,99245.67
2018-12-18T02:01:50.841Z,99245.39
2018-12-18T02:04:19.357Z,99247.54
2018-12-18T02:06:47.824Z,99242.15
2018-12-18T02:09:16.469Z,99240.00
2018-12-18T02:11:44.931Z,99241.06
2018-12-18T02:14:13.446Z,99243.77
2018-12-18T02:16:41.918Z,99237.30
2018-12-18T02:19:10.990Z,99240.27
2018-12-18T02:21:39.828Z,99236.49
2018-12-18T02:24:08.566Z,99232.97
2018-12-18T02:26:37.073Z,99224.34
2018-12-18T02:29:05.523Z,99224.91
2018-12-18T02:31:34.093Z,99225.69
2018-12-18T02:34:02.576Z,99225.73
2018-12-18T02:36:31.514Z,99224.38
2018-12-18T02:39:00.027Z,99223.58
2018-12-18T02:41:28.535Z,99221.96
2018-12-18T02:43:57.103Z,99223.60
2018-12-18T02:46:25.714Z,99220.41
2018-12-18T02:48:54.310Z,99213.39
2018-12-18T02:51:22.901Z,99213.66
2018-12-18T02:53:51.363Z,99206.03
2018-12-18T02:56:19.850Z,99204.74
2018-12-18T02:58:48.290Z,99209.05
2018-12-18T03:01:16.839Z,99201.73
2018-12-18T03:03:45.309Z,99207.13
2018-12-18T03:06:13.786Z,99204.70
2018-12-18T03:08:42.310Z,99204.97
2018-12-18T03:11:14.923Z,99213.05
2018-12-18T03:13:43.378Z,99215.74
2018-12-18T03:16:11.958Z,99216.81
2018-12-18T03:18:40.514Z,99220.59
2018-12-18T03:21:09.648Z,99238.17
2018-12-18T03:23:38.205Z,99237.91
2018-12-18T03:26:06.729Z,99241.70
2018-12-18T03:28:35.282Z,99234.19
2018-12-18T03:31:04.408Z,99246.06
2018-12-18T03:33:32.955Z,99227.16
2018-12-18T03:36:01.491Z,99227.45
2018-12-18T03:38:29.942Z,99228.80
2018-12-18T03:40:58.451Z,99228.58
2018-12-18T03:43:27.015Z,99229.67
2018-12-18T03:45:56.550Z,99217.19
2018-12-18T03:48:25.035Z,99218.27
2018-12-18T03:50:53.617Z,99222.11
2018-12-18T03:53:22.236Z,99213.78
2018-12-18T03:55:50.701Z,99214.87
2018-12-18T03:58:19.268Z,99215.94
2018-12-18T04:00:47.748Z,99215.91
2018-12-18T04:03:16.326Z,99213.25
2018-12-18T04:05:44.850Z,99212.39
2018-12-18T04:08:13.463Z,99218.06
2018-12-18T04:10:41.944Z,99216.22
2018-12-18T04:13:10.506Z,99211.62
2018-12-18T04:15:39.066Z,99203.80
2018-12-18T04:18:07.560Z,99204.88
2018-12-18T04:20:36.050Z,99203.21
2018-12-18T04:23:04.615Z,99199.48
2018-12-18T04:25:33.152Z,99196.02
2018-12-18T04:28:01.630Z,99206.77
2018-12-18T04:30:30.118Z,99193.81
2018-12-18T04:32:58.581Z,99197.32
2018-12-18T04:35:27.124Z,99199.48
2018-12-18T04:37:55.782Z,99203.53
2018-12-18T04:40:24.992Z,99203.25
2018-12-18T04:42:53.669Z,99202.72
2018-12-18T04:45:22.158Z,99201.41
2018-12-18T04:47:50.608Z,99202.98
2018-12-18T04:50:20.806Z,99200.30
2018-12-18T04:52:49.553Z,99196.82
2018-12-18T04:55:18.084Z,99206.19
2018-12-18T04:57:46.530Z,99203.48
2018-12-18T05:00:15.751Z,99200.56
2018-12-18T05:02:44.826Z,99202.98
2018-12-18T05:05:13.290Z,99212.16
2018-12-18T05:07:41.793Z,99208.66
2018-12-18T05:10:10.299Z,99209.45
2018-12-18T05:12:38.762Z,99213.24
2018-12-18T05:15:07.282Z,99208.53
2018-12-18T05:17:35.783Z,99211.89
2018-12-18T05:20:04.582Z,99208.34
2018-12-18T05:22:33.155Z,99213.73
2018-12-18T05:25:01.743Z,99216.71
2018-12-18T05:27:30.310Z,99217.29
2018-12-18T05:29:58.834Z,99208.93
2018-12-18T05:32:27.670Z,99215.71
2018-12-18T05:34:56.703Z,99214.36
2018-12-18T05:37:25.550Z,99211.13
2018-12-18T05:39:55.118Z,99217.06
2018-12-18T05:42:24.426Z,99213.28
2018-12-18T05:44:53.053Z,99217.60
2018-12-18T05:47:21.509Z,99216.52
2018-12-18T05:49:50.072Z,99208.42
2018-12-18T05:52:18.538Z,99217.06
2018-12-18T05:54:47.006Z,99206.81
2018-12-18T05:57:15.510Z,99219.22
2018-12-18T05:59:44.509Z,99223.53
2018-12-18T06:02:14.865Z,99215.71
2018-12-18T06:04:43.919Z,99219.49
2018-12-18T06:07:16.585Z,99216.80
2018-12-18T06:09:46.377Z,99217.06
2018-12-18T06:12:17.324Z,99225.70
2018-12-18T06:14:47.829Z,99226.77
2018-12-18T06:17:17.331Z,99230.05
2018-12-18T06:19:46.075Z,99230.31
2018-12-18T06:22:14.801Z,99230.55
2018-12-18T06:24:44.253Z,99230.02
2018-12-18T06:27:12.819Z,99234.33
2018-12-18T06:29:41.618Z,99231.61
2018-12-18T06:32:10.581Z,99230.02
2018-12-18T06:34:39.375Z,99219.19
2018-12-18T06:37:08.118Z,99219.48
2018-12-18T06:39:38.525Z,99211.66
2018-12-18T06:42:08.049Z,99213.83
2018-12-18T06:44:36.770Z,99219.22
2018-12-18T06:47:05.490Z,99221.38
2018-12-18T06:49:34.967Z,99223.53
2018-12-18T06:52:03.797Z,99217.60
2018-12-18T06:54:32.481Z,99221.14
2018-12-18T06:57:02.299Z,99228.69
2018-12-18T06:59:31.003Z,99236.23
2018-12-18T07:02:00.193Z,99241.38
2018-12-18T07:04:28.994Z,99239.75
2018-12-18T07:06:57.482Z,99238.66
2018-12-18T07:09:25.944Z,99232.73
2018-12-18T07:11:54.481Z,99236.52
2018-12-18T07:14:23.059Z,99236.23
2018-12-18T07:16:51.539Z,99227.61
2018-12-18T07:19:20.109Z,99228.95
2018-12-18T07:21:48.630Z,99228.12
2018-12-18T07:24:17.434Z,99226.53
2018-12-18T07:26:46.670Z,99232.73
2018-12-18T07:29:15.286Z,99234.08
2018-12-18T07:31:43.759Z,99237.86
2018-12-18T07:34:13.222Z,99232.73
2018-12-18T07:36:41.706Z,99233.56
2018-12-18T07:39:10.302Z,99232.75
2018-12-18T07:41:38.859Z,99242.20
2018-12-18T07:44:08.031Z,99239.20
2018-12-18T07:46:36.646Z,99249.21
2018-12-18T07:49:05.174Z,99252.17
2018-12-18T07:51:33.689Z,99251.89
2018-12-18T07:54:02.245Z,99241.64
2018-12-18T07:56:30.822Z,99245.16
2018-12-18T07:58:59.959Z,99240.84
2018-12-18T08:01:28.458Z,99242.98
2018-12-18T08:03:57.042Z,99246.24
2018-12-18T08:06:25.522Z,99242.72
2018-12-18T08:08:54.030Z,99238.69
2018-12-18T08:11:22.620Z,99230.32
2018-12-18T08:13:51.366Z,99233.29
2018-12-18T08:16:20.079Z,99235.16
2018-12-18T08:18:48.654Z,99237.60
2018-12-18T08:21:17.203Z,99240.84
2018-12-18T08:23:45.738Z,99232.44
2018-12-18T08:26:14.274Z,99231.02
2018-12-18T08:28:42.808Z,99232.86
2018-12-18T08:31:11.486Z,99231.41
2018-12-18T08:33:40.058Z,99226.36
2018-12-18T08:36:09.370Z,99223.88
2018-12-18T08:38:38.298Z,99222.63
2018-12-18T08:41:06.742Z,99225.47
2018-12-18T08:43:35.322Z,99227.67
2018-12-18T08:46:09.998Z,99224.97
2018-12-18T08:48:34.687Z,99235.46
2018-12-18T08:51:03.166Z,99238.63
2018-12-18T08:53:31.662Z,99244.94
2018-12-18T08:56:00.130Z,99243.41
2018-12-18T08:58:28.650Z,99247.27
2018-12-18T09:00:57.164Z,99245.30
2018-12-18T09:03:26.197Z,99253.75
2018-12-18T09:05:54.835Z,99256.42
2018-12-18T09:08:24.003Z,99258.51
2018-12-18T09:10:52.602Z,99255.32
2018-12-18T09:13:21.154Z,99255.50
2018-12-18T09:15:56.729Z,99260.81
2018-12-18T09:18:25.332Z,99251.28
2018-12-18T09:20:53.940Z,99257.46
2018-12-18T09:23:22.628Z,99260.02
2018-12-18T09:25:51.131Z,99270.11
2018-12-18T09:28:19.625Z,99259.24
2018-12-18T09:30:48.850Z,99261.67
2018-12-18T09:33:17.317Z,99257.88
2018-12-18T09:35:49.626Z,99260.41
2018-12-18T09:38:21.632Z,99258.55
2018-12-18T09:40:55.322Z,99260.39
2018-12-18T09:43:29.178Z,99257.77
2018-12-18T09:45:57.642Z,99258.06
2018-12-18T09:48:26.129Z,99255.95
2018-12-18T09:50:54.646Z,99252.29
2018-12-18T09:53:23.154Z,99245.77
2018-12-18T09:55:51.771Z,99246.02
2018-12-18T09:58:20.318Z,99247.57
2018-12-18T10:00:48.917Z,99246.46
2018-12-18T10:03:17.417Z,99241.70
2018-12-18T10:05:46.024Z,99244.73
2018-12-18T10:08:14.502Z,99236.36
2018-12-18T10:10:43.006Z,99234.59
2018-12-18T10:13:11.588Z,99224.74
2018-12-18T10:15:40.120Z,99232.95
2018-12-18T10:18:08.619Z,99229.56
2018-12-18T10:20:37.082Z,99223.69
2018-12-18T10:23:05.646Z,99226.41
2018-12-18T10:25:34.144Z,99227.19
2018-12-18T10:28:02.677Z,99225.58
2018-12-18T10:30:31.151Z,99218.23
2018-12-18T10:32:59.706Z,99216.33
2018-12-18T10:35:28.299Z,99212.91
2018-12-18T10:37:56.926Z,99201.81
2018-12-18T10:40:25.394Z,99194.80
2018-12-18T10:42:53.892Z,99188.57
2018-12-18T10:45:22.889Z,99186.12
2018-12-18T10:47:51.454Z,99164.71
2018-12-18T10:50:19.928Z,99148.45
2018-12-18T10:52:48.434Z,99137.53
2018-12-18T10:55:16.911Z,99122.43
2018-12-18T10:57:45.558Z,99113.41
2018-12-18T11:00:18.754Z,99106.63
2018-12-18T11:02:47.934Z,99098.32
2018-12-18T11:05:16.578Z,99100.59
2018-12-18T11:07:45.678Z,99095.48
2018-12-18T11:10:14.148Z,99088.06
2018-12-18T11:12:46.801Z,99084.87
2018-12-18T11:15:15.265Z,99084.92
2018-12-18T11:17:43.768Z,99068.97
2018-12-18T11:20:12.226Z,99076.24
2018-12-18T11:22:40.738Z,99081.98
2018-12-18T11:25:09.310Z,99076.17
2018-12-18T11:27:37.800Z,99065.42
2018-12-18T11:30:06.931Z,99058.98
2018-12-18T11:32:35.502Z,99059.27
2018-12-18T11:35:04.191Z,99058.14
2018-12-18T11:37:32.668Z,99053.84
2018-12-18T11:40:01.237Z,99047.66
2018-12-18T11:42:30.216Z,99044.60
2018-12-18T11:44:59.280Z,99036.23
2018-12-18T11:47:27.789Z,99040.02
2018-12-18T11:49:57.286Z,99036.68
2018-12-18T11:52:25.866Z,99031.71
2018-12-18T11:54:54.390Z,99024.71
2018-12-18T11:57:23.926Z,99029.52
2018-12-18T11:59:52.999Z,99028.86
2018-12-18T12:02:21.559Z,99020.41
2018-12-18T12:04:50.086Z,99019.05
2018-12-18T12:07:18.751Z,99015.02
2018-12-18T12:09:47.271Z,99009.92
2018-12-18T12:12:15.788Z,99009.50
2018-12-18T12:14:44.594Z,99003.27
2018-12-18T12:17:13.393Z,99001.63
2018-12-18T12:19:42.014Z,98987.63
2018-12-18T12:22:10.606Z,98992.42
2018-12-18T12:24:39.088Z,98981.71
2018-12-18T12:27:12.794Z,98975.34
2018-12-18T12:29:41.245Z,98972.32
2018-12-18T12:32:09.842Z,98975.44
2018-12-18T12:34:38.309Z,98960.12
2018-12-18T12:37:07.306Z,98960.53
2018-12-18T12:39:35.829Z,98948.02
2018-12-18T12:42:04.402Z,98936.69
2018-12-18T12:44:32.925Z,98936.98
2018-12-18T12:47:01.642Z,98940.77
2018-12-18T12:49:35.392Z,98923.61
2018-12-18T12:52:04.035Z,98911.09
2018-12-18T12:54:32.514Z,98911.47
2018-12-18T12:57:01.142Z,98899.75
2018-12-18T12:59:29.616Z,98901.94
2018-12-18T13:01:58.293Z,98891.45
2018-12-18T13:04:26.872Z,98897.52
2018-12-18T13:06:55.360Z,98896.92
2018-12-18T13:09:23.831Z,98899.48
2018-12-18T13:11:52.300Z,98901.13
2018-12-18T13:14:20.937Z,98897.42
2018-12-18T13:16:49.529Z,98895.45
2018-12-18T13:19:18.111Z,98885.18
2018-12-18T13:21:46.613Z,98884.01
2018-12-18T13:24:16.248Z,98885.75
2018-12-18T13:26:44.790Z,98880.41
2018-12-18T13:29:13.292Z,98887.64
2018-12-18T13:31:43.061Z,98887.97
2018-12-18T13:34:11.550Z,98886.80
2018-12-18T13:36:42.985Z,98889.87
2018-12-18T13:39:10.519Z,98885.12
2018-12-18T13:41:39.538Z,98885.22
2018-12-18T13:44:07.983Z,98877.41
2018-12-18T13:46:36.502Z,98880.20
2018-12-18T13:49:05.019Z,98878.14
2018-12-18T13:51:34.936Z,98860.45
2018-12-18T13:54:03.476Z,98857.47
2018-12-18T13:56:32.905Z,98855.19
2018-12-18T13:59:01.379Z,98849.38
2018-12-18T14:01:29.865Z,98854.68
2018-12-18T14:03:58.317Z,98854.67
2018-12-18T14:06:27.013Z,98864.48
2018-12-18T14:08:55.519Z,98856.80
2018-12-18T14:11:24.080Z,98864.65
2018-12-18T14:13:53.146Z,98865.91
2018-12-18T14:16:21.686Z,98867.50
2018-12-18T14:18:50.230Z,98862.16
2018-12-18T14:21:18.742Z,98866.12
2018-12-18T14:23:47.388Z,98858.85
2018-12-18T14:26:15.886Z,98854.78
2018-12-18T14:28:44.437Z,98840.88
2018-12-18T14:31:13.011Z,98843.96
2018-12-18T14:33:41.597Z,98849.02
2018-12-18T14:36:10.200Z,98851.27
2018-12-18T14:38:45.161Z,98851.30
2018-12-18T14:41:14.664Z,98851.27
2018-12-18T14:43:43.144Z,98863.67
2018-12-18T14:46:11.702Z,98866.04
2018-12-18T14:48:40.155Z,98857.19
2018-12-18T14:51:09.246Z,98852.61
2018-12-18T14:53:37.833Z,98851.56
2018-12-18T14:56:07.116Z,98857.22
2018-12-18T14:58:35.558Z,98853.17
2018-12-18T15:01:04.092Z,98866.30
2018-12-18T15:03:32.565Z,98861.92
2018-12-18T15:06:01.041Z,98864.95
2018-12-18T15:08:29.742Z,98866.54
2018-12-18T15:10:58.243Z,98862.09
2018-12-18T15:13:28.828Z,98862.95
2018-12-18T15:15:57.370Z,98860.63
2018-12-18T15:18:25.830Z,98860.22
2018-12-18T15:20:54.331Z,98871.54
2018-12-18T15:23:22.865Z,98859.09
2018-12-18T15:25:52.135Z,98857.95
2018-12-18T15:28:20.586Z,98854.78
2018-12-18T15:30:49.195Z,98855.17
2018-12-18T15:33:17.739Z,98850.09
2018-12-18T15:35:46.987Z,98843.28
2018-12-18T15:38:15.551Z,98836.80
2018-12-18T15:40:44.512Z,98837.84
2018-12-18T15:43:13.027Z,98828.94
2018-12-18T15:45:41.668Z,98833.38
2018-12-18T15:48:10.118Z,98836.09
2018-12-18T15:50:38.702Z,98829.75
2018-12-18T15:53:07.854Z,98840.63
2018-12-18T15:55:36.367Z,98836.34
2018-12-18T15:58:04.858Z,98834.66
2018-12-18T16:00:33.403Z,98843.28
2018-12-18T16:03:01.850Z,98834.91
2018-12-18T16:05:30.460Z,98834.37
2018-12-18T16:07:59.017Z,98841.04
2018-12-18T16:10:27.930Z,98838.52
2018-12-18T16:12:56.556Z,98845.88
2018-12-18T16:15:25.034Z,98839.62
2018-12-18T16:17:53.606Z,98847.80
2018-12-18T16:20:22.189Z,98841.56
2018-12-18T16:22:50.760Z,98841.00
2018-12-18T16:25:22.004Z,98855.13
2018-12-18T16:27:50.602Z,98850.96
2018-12-18T16:30:19.314Z,98854.61
2018-12-18T16:32:48.691Z,98849.25
2018-12-18T16:35:17.186Z,98837.57
2018-12-18T16:37:46.403Z,98837.14
2018-12-18T16:40:14.915Z,98840.13
2018-12-18T16:42:43.478Z,98841.63
2018-12-18T16:45:12.116Z,98831.16
2018-12-18T16:47:40.723Z,98822.99
2018-12-18T16:50:09.714Z,98814.95
2018-12-18T16:52:38.893Z,98816.05
2018-12-18T16:55:07.899Z,98803.19
2018-12-18T16:57:36.437Z,98797.69
2018-12-18T17:00:06.079Z,98803.91
2018-12-18T17:02:34.670Z,98801.14
2018-12-18T17:05:03.346Z,98788.41
2018-12-18T17:07:31.885Z,98785.48
2018-12-18T17:10:00.356Z,98783.67
2018-12-18T17:12:29.526Z,98797.23
2018-12-18T17:14:58.106Z,98790.82
2018-12-18T17:17:26.619Z,98778.59
2018-12-18T17:19:55.166Z,98786.80
2018-12-18T17:22:23.750Z,98783.58
2018-12-18T17:24:52.237Z,98793.41
2018-12-18T17:27:20.711Z,98795.57
2018-12-18T17:29:49.228Z,98799.89
2018-12-18T17:32:18.577Z,98795.28
2018-12-18T17:34:47.782Z,98799.85
2018-12-18T17:37:16.882Z,98799.80
2018-12-18T17:39:45.990Z,98794.46
2018-12-18T17:42:14.488Z,98803.08
2018-12-18T17:44:42.979Z,98803.67
2018-12-18T17:47:11.461Z,98793.13
2018-12-18T17:49:40.131Z,98789.80
2018-12-18T17:52:09.230Z,98795.28
2018-12-18T17:54:38.127Z,98790.77
2018-12-18T17:57:06.581Z,98791.53
2018-12-18T17:59:35.090Z,98792.17
2018-12-18T18:02:03.898Z,98789.52
2018-12-18T18:04:32.436Z,98802.19
2018-12-18T18:07:01.018Z,98797.21
2018-12-18T18:09:29.610Z,98789.55
2018-12-18T18:11:58.139Z,98788.44
2018-12-18T18:14:26.686Z,98785.11
2018-12-18T18:16:55.258Z,98784.13
2018-12-18T18:19:23.784Z,98780.60
2018-12-18T18:21:53.310Z,98801.12
2018-12-18T18:24:21.800Z,98783.48
2018-12-18T18:26:50.264Z,98782.49
2018-12-18T18:29:18.750Z,98774.37
2018-12-18T18:31:47.367Z,98773.23
2018-12-18T18:34:15.943Z,98761.98
2018-12-18T18:36:44.442Z,98762.09
2018-12-18T18:39:13.006Z,98757.17
2018-12-18T18:41:41.485Z,98759.84
2018-12-18T18:44:10.217Z,98745.39
2018-12-18T18:46:38.886Z,98750.96
2018-12-18T18:49:07.379Z,98747.20
2018-12-18T18:51:35.892Z,98736.38
2018-12-18T18:54:05.224Z,98737.25
2018-12-18T18:56:33.711Z,98730.74
2018-12-18T18:59:02.727Z,98736.40
2018-12-18T19:01:31.202Z,98734.38
2018-12-18T19:03:59.829Z,98734.66
2018-12-18T19:06:29.038Z,98734.52
2018-12-18T19:08:57.603Z,98734.59
2018-12-18T19:11:26.282Z,98736.44
2018-12-18T19:13:54.860Z,98733.02
2018-12-18T19:16:23.473Z,98727.36
2018-12-18T19:18:52.067Z,98727.91
2018-12-18T19:21:20.597Z,98726.79
2018-12-18T19:23:49.987Z,98723.59
2018-12-18T19:26:18.631Z,98718.44
2018-12-18T19:28:50.349Z,98703.45
2018-12-18T19:31:18.436Z,98702.94
2018-12-18T19:33:47.161Z,98704.44
2018-12-18T19:36:16.239Z,98707.45
2018-12-18T19:38:44.738Z,98702.44
2018-12-18T19:41:13.305Z,98705.52
2018-12-18T19:43:41.809Z,98695.64
2018-12-18T19:46:10.422Z,98702.92
2018-12-18T19:48:39.257Z,98695.82
2018-12-18T19:51:07.782Z,98700.22
2018-12-18T19:53:36.347Z,98701.48
2018-12-18T19:56:05.077Z,98709.17
2018-12-18T19:58:33.560Z,98699.83
2018-12-18T20:01:02.111Z,98698.22
2018-12-18T20:03:30.658Z,98691.19
2018-12-18T20:05:59.186Z,98691.47
2018-12-18T20:08:27.852Z,98683.13
2018-12-18T20:10:57.259Z,98695.78
2018-12-18T20:13:25.900Z,98694.98
2018-12-18T20:15:54.356Z,98689.59
2018-12-18T20:18:24.248Z,98683.63
2018-12-18T20:20:52.925Z,98680.43
2018-12-18T20:23:22.147Z,98684.71
2018-12-18T20:25:51.658Z,98681.96
2018-12-18T20:28:20.866Z,98681.14
2018-12-18T20:30:50.922Z,98685.53
2018-12-18T20:33:21.702Z,98681.41
2018-12-18T20:35:50.374Z,98679.24
2018-12-18T20:38:19.770Z,98671.71
2018-12-18T20:40:50.660Z,98656.77
2018-12-18T20:43:21.364Z,98644.44
2018-12-18T20:45:52.011Z,98643.67
2018-12-18T20:48:22.311Z,98633.23
2018-12-18T20:50:52.734Z,98637.17
2018-12-18T20:53:23.441Z,98634.51
2018-12-18T20:55:54.578Z,98625.19
2018-12-18T20:58:23.673Z,98619.27
2018-12-18T21:00:54.587Z,98620.33
2018-12-18T21:03:25.248Z,98609.83
2018-12-18T21:05:57.232Z,98603.64
2018-12-18T21:08:28.041Z,98586.00
2018-12-18T21:10:59.773Z,98577.75
2018-12-18T21:13:31.586Z,98577.25
2018-12-18T21:16:03.265Z,98579.43
2018-12-18T21:18:32.980Z,98598.09
2018-12-18T21:21:03.761Z,98614.25
2018-12-18T21:23:33.808Z,98624.09
2018-12-18T21:26:03.087Z,98619.77
2018-12-18T21:28:32.021Z,98608.51
2018-12-18T21:31:01.305Z,98595.05
2018-12-18T21:33:30.455Z,98594.99
2018-12-18T21:35:59.518Z,98583.48
2018-12-18T21:38:30.646Z,98583.70
2018-12-18T21:41:01.358Z,98587.52
2018-12-18T21:43:31.814Z,98596.76
2018-12-18T21:46:00.829Z,98599.62
2018-12-18T21:48:29.527Z,98590.42
2018-12-18T21:50:58.274Z,98570.23
2018-12-18T21:53:26.863Z,98564.16
2018-12-18T21:55:55.872Z,98550.83
2018-12-18T21:58:24.331Z,98544.27
2018-12-18T22:00:53.259Z,98549.75
2018-12-18T22:03:21.873Z,98544.62
2018-12-18T22:05:50.814Z,98541.07
2018-12-18T22:08:19.477Z,98526.42
2018-12-18T22:10:48.110Z,98522.39
2018-12-18T22:13:17.434Z,98511.05
2018-12-18T22:15:46.066Z,98501.08
2018-12-18T22:18:14.704Z,98483.14
2018-12-18T22:20:44.023Z,98488.88
2018-12-18T22:23:12.850Z,98485.94
2018-12-18T22:25:41.468Z,98479.23
2018-12-18T22:28:10.213Z,98471.77
2018-12-18T22:30:38.825Z,98474.67
2018-12-18T22:33:07.798Z,98475.00
2018-12-18T22:35:36.386Z,98480.64
2018-12-18T22:38:05.099Z,98478.22
2018-12-18T22:40:33.623Z,98482.28
2018-12-18T22:43:02.129Z,98484.16
2018-12-18T22:45:31.406Z,98499.20
2018-12-18T22:48:00.656Z,98502.16
2018-12-18T22:50:29.191Z,98504.56
2018-12-18T22:52:57.780Z,98506.17
2018-12-18T22:55:26.631Z,98501.08
2018-12-18T22:57:55.106Z,98494.30
2018-12-18T23:01:27.194Z,98488.98
2018-12-18T23:03:55.658Z,98501.88
2018-12-18T23:06:24.458Z,98500.80
2018-12-18T23:08:52.946Z,98498.11
2018-12-18T23:11:21.422Z,98502.62
2018-12-18T23:13:49.901Z,98499.72
2018-12-18T23:16:18.432Z,98504.58
2018-12-18T23:18:47.034Z,98508.81
2018-12-18T23:21:15.605Z,98500.19
2018-12-18T23:23:44.206Z,98502.69
2018-12-18T23:26:12.794Z,98505.37
2018-12-18T23:28:41.706Z,98503.49
2018-12-18T23:31:10.312Z,98498.39
2018-12-18T23:33:39.059Z,98491.68
2018-12-18T23:36:07.859Z,98488.17
2018-12-18T23:38:38.011Z,98476.63
2018-12-18T23:41:06.562Z,98468.55
2018-12-18T23:43:35.025Z,98470.97
2018-12-18T23:46:03.662Z,98468.08
2018-12-18T23:48:32.294Z,98454.32
2018-12-18T23:51:00.762Z,98449.20
2018-12-18T23:53:29.622Z,98449.48
2018-12-18T23:55:58.590Z,98434.13
2018-12-18T23:58:27.049Z,98417.76
